Time;durP1;ratioP1;P1;durP2;ratioP2;P2;SDS_P1;SDS_P2;PMS_P1;PMS_P2;Temp;Humidity;BMP_temperature;BMP_pressure;BME280_temperature;BME280_humidity;BME280_pressure;Samples;Min_cycle;Max_cycle;Signal;HPM_P1;HPM_P2
2023/01/06 00:01:33;;;;;;;0.37;0.37;;;;;;;12.34;86.75;96112.94;4373821;32;20237;-58
2023/01/06 00:03:59;;;;;;;0.20;0.20;;;;;;;11.89;85.99;96104.41;4378083;32;20201;-57
2023/01/06 00:06:26;;;;;;;0.30;0.30;;;;;;;11.56;87.01;96098.06;4381565;32;20231;-57
2023/01/06 00:08:56;;;;;;;0.40;0.40;;;;;;;11.33;88.16;96099.59;4390610;32;20299;-57
2023/01/06 00:11:25;;;;;;;0.20;0.20;;;;;;;11.41;88.46;96092.88;4389823;32;20192;-56
2023/01/06 00:13:51;;;;;;;0.43;0.37;;;;;;;11.48;87.84;96088.03;4380428;32;20276;-57
2023/01/06 00:16:18;;;;;;;0.20;0.20;;;;;;;11.40;88.32;96087.84;4373732;32;20215;-57
2023/01/06 00:18:44;;;;;;;0.47;0.47;;;;;;;11.27;88.94;96087.41;4388651;32;20188;-58
2023/01/06 00:21:11;;;;;;;0.47;0.47;;;;;;;11.01;90.40;96086.81;4372838;32;20254;-57
2023/01/06 00:23:37;;;;;;;0.23;0.23;;;;;;;11.06;90.32;96079.88;4386143;32;20197;-57
2023/01/06 00:26:04;;;;;;;0.23;0.23;;;;;;;11.14;89.89;96084.59;4388746;32;20249;-57
2023/01/06 00:28:29;;;;;;;0.33;0.33;;;;;;;11.07;90.14;96073.50;4377717;32;20207;-57
2023/01/06 00:30:55;;;;;;;0.20;0.20;;;;;;;10.99;90.82;96073.03;4379907;32;20243;-57
2023/01/06 00:33:20;;;;;;;0.30;0.30;;;;;;;10.84;91.54;96070.47;4393407;32;20298;-57
2023/01/06 00:35:45;;;;;;;0.33;0.33;;;;;;;10.93;91.23;96063.50;4390203;32;20221;-57
2023/01/06 00:38:11;;;;;;;0.43;0.43;;;;;;;10.89;91.28;96057.16;4388718;32;20188;-57
2023/01/06 00:40:37;;;;;;;0.20;0.20;;;;;;;10.91;91.20;96057.69;4360580;32;20283;-56
2023/01/06 00:43:03;;;;;;;0.30;0.30;;;;;;;10.83;91.49;96063.56;4376288;32;20233;-58
2023/01/06 00:45:28;;;;;;;0.20;0.20;;;;;;;10.77;91.91;96070.00;4378525;32;20211;-57
2023/01/06 00:47:54;;;;;;;0.30;0.30;;;;;;;10.78;91.99;96054.88;4389117;32;20208;-56
2023/01/06 00:50:19;;;;;;;0.77;0.33;;;;;;;10.71;92.33;96065.00;4387221;32;20266;-57
2023/01/06 00:52:47;;;;;;;0.40;0.40;;;;;;;10.67;92.52;96059.44;4382259;32;20292;-57
2023/01/06 00:55:12;;;;;;;0.10;0.10;;;;;;;10.56;92.63;96063.22;4376230;32;20196;-57
2023/01/06 00:57:38;;;;;;;0.10;0.10;;;;;;;10.58;92.64;96055.78;4375848;32;20211;-57
2023/01/06 01:00:05;;;;;;;0.17;0.17;;;;;;;10.46;93.18;96058.78;4373727;32;20185;-55
2023/01/06 01:02:31;;;;;;;0.10;0.10;;;;;;;10.57;92.66;96043.59;4378863;32;20201;-64
2023/01/06 01:04:56;;;;;;;0.47;0.47;;;;;;;10.50;92.78;96059.03;4392004;32;20193;-57
2023/01/06 01:07:22;;;;;;;0.10;0.10;;;;;;;10.49;92.89;96046.81;4367144;32;20189;-57
2023/01/06 01:09:47;;;;;;;0.10;0.10;;;;;;;10.47;92.73;96043.66;4377041;32;20184;-57
2023/01/06 01:12:15;;;;;;;0.57;0.30;;;;;;;10.56;92.49;96037.50;4391026;32;20256;-58
2023/01/06 01:14:48;;;;;;;0.10;0.10;;;;;;;10.66;91.97;96036.63;4377333;32;20215;-57
2023/01/06 01:17:18;;;;;;;0.67;0.60;;;;;;;10.56;92.02;96036.72;4377367;32;20231;-57
2023/01/06 01:19:43;;;;;;;0.23;0.23;;;;;;;10.57;91.72;96039.09;4376995;32;20218;-56
2023/01/06 01:22:09;;;;;;;0.30;0.30;;;;;;;10.44;92.22;96036.22;4391778;32;20188;-56
2023/01/06 01:24:34;;;;;;;0.30;0.30;;;;;;;10.49;92.14;96033.56;4384092;32;20200;-57
2023/01/06 01:27:00;;;;;;;0.13;0.13;;;;;;;10.62;91.48;96038.25;4396549;32;20193;-57
2023/01/06 01:29:25;;;;;;;0.40;0.40;;;;;;;10.47;91.82;96031.19;4384220;32;20188;-57
2023/01/06 01:31:51;;;;;;;0.30;0.30;;;;;;;10.38;92.03;96035.50;4394657;32;20275;-57
2023/01/06 01:34:17;;;;;;;0.20;0.20;;;;;;;10.46;91.51;96034.09;4394375;32;20184;-57
2023/01/06 01:36:45;;;;;;;0.10;0.10;;;;;;;10.41;91.62;96034.91;4370346;32;20179;-57
2023/01/06 01:39:11;;;;;;;0.20;0.20;;;;;;;10.54;91.24;96036.19;4367845;32;20212;-56
2023/01/06 01:41:37;;;;;;;0.00;0.00;;;;;;;10.52;90.81;96035.66;4386498;32;20222;-57
2023/01/06 01:44:41;;;;;;;1.73;0.60;;;;;;;10.44;91.28;96033.56;4385929;32;20193;-57
2023/01/06 01:47:07;;;;;;;0.40;0.40;;;;;;;10.30;91.26;96034.19;4380723;32;20231;-57
2023/01/06 01:49:36;;;;;;;0.27;0.27;;;;;;;10.31;91.66;96030.47;4393331;32;20199;-57
2023/01/06 01:52:01;;;;;;;0.10;0.10;;;;;;;10.22;91.51;96034.75;4394380;32;20193;-60
2023/01/06 01:54:31;;;;;;;0.93;0.20;;;;;;;10.13;91.65;96023.13;4382492;32;20275;-57
2023/01/06 01:57:15;;;;;;;0.30;0.30;;;;;;;10.11;91.77;96022.59;4393573;32;20245;-57
2023/01/06 01:59:42;;;;;;;0.10;0.10;;;;;;;10.05;91.85;96030.84;4383239;32;20230;-57
2023/01/06 02:02:08;;;;;;;0.20;0.20;;;;;;;10.01;92.37;96025.28;4375578;32;20233;-57
2023/01/06 02:04:38;;;;;;;0.30;0.30;;;;;;;9.95;92.54;96023.72;4374489;32;20196;-57
2023/01/06 02:07:05;;;;;;;0.30;0.30;;;;;;;10.01;92.44;96019.97;4366715;32;20201;-56
2023/01/06 02:09:36;;;;;;;0.10;0.10;;;;;;;10.06;91.63;96017.31;4382054;32;20203;-57
2023/01/06 02:12:03;;;;;;;0.47;0.40;;;;;;;9.85;92.36;96026.41;4392022;32;20204;-57
2023/01/06 02:14:28;;;;;;;0.00;0.00;;;;;;;9.79;92.37;96022.97;4394510;32;20207;-57
2023/01/06 02:17:19;;;;;;;1.07;0.40;;;;;;;9.77;92.56;96019.03;4385633;32;20200;-55
2023/01/06 02:20:25;;;;;;;0.10;0.10;;;;;;;9.86;92.04;96012.09;4393802;32;20197;-57
2023/01/06 02:23:32;;;;;;;0.20;0.20;;;;;;;9.78;92.00;96008.13;4377595;32;20193;-57
2023/01/06 02:26:22;;;;;;;0.20;0.10;;;;;;;9.81;92.23;96012.09;4355330;32;20192;-56
2023/01/06 02:29:27;;;;;;;0.10;0.10;;;;;;;9.89;91.22;96008.91;4359867;32;20220;-56
2023/01/06 02:32:13;;;;;;;0.00;0.00;;;;;;;9.77;91.70;96000.50;4363908;32;20188;-57
2023/01/06 02:34:41;;;;;;;0.13;0.13;;;;;;;9.76;91.45;96004.19;4386227;32;20203;-57
2023/01/06 02:37:20;;;;;;;0.40;0.40;;;;;;;9.61;92.35;96000.53;4371076;32;20200;-57
2023/01/06 02:40:10;;;;;;;0.23;0.23;;;;;;;9.65;92.19;95990.97;4371120;32;20272;-57
2023/01/06 02:42:48;;;;;;;0.13;0.13;;;;;;;9.68;92.23;95991.50;4389367;32;20196;-57
2023/01/06 02:45:33;;;;;;;0.53;0.53;;;;;;;9.58;92.29;95990.47;4373808;32;20196;-57
2023/01/06 02:48:37;;;;;;;0.30;0.30;;;;;;;9.51;92.17;95989.97;4380261;32;20193;-58
2023/01/06 02:51:10;;;;;;;0.17;0.17;;;;;;;9.58;92.34;95982.50;4367965;32;20217;-57
2023/01/06 02:53:46;;;;;;;0.10;0.10;;;;;;;9.57;91.73;95978.28;4391262;32;20270;-57
2023/01/06 02:56:11;;;;;;;0.07;0.07;;;;;;;9.63;91.12;95971.91;4392396;32;20225;-57
2023/01/06 02:58:50;;;;;;;0.23;0.23;;;;;;;9.63;91.28;95971.91;4390759;32;20189;-57
2023/01/06 03:01:31;;;;;;;0.33;0.33;;;;;;;9.43;92.06;95976.47;4370346;32;20236;-57
2023/01/06 03:03:59;;;;;;;0.77;0.77;;;;;;;9.48;91.92;95979.13;4377888;32;20241;-58
2023/01/06 03:06:28;;;;;;;0.10;0.10;;;;;;;9.54;91.69;95970.91;4377685;32;20196;-55
2023/01/06 03:08:58;;;;;;;0.20;0.20;;;;;;;9.51;91.16;95975.94;4391102;32;20246;-57
2023/01/06 03:11:30;;;;;;;0.00;0.00;;;;;;;9.40;91.92;95980.44;4377752;32;20222;-57
2023/01/06 03:14:02;;;;;;;0.50;0.50;;;;;;;9.29;92.38;95970.97;4391103;32;20184;-57
2023/01/06 03:16:27;;;;;;;0.00;0.00;;;;;;;9.24;92.97;95973.62;4381353;32;20211;-57
2023/01/06 03:18:54;;;;;;;0.20;0.20;;;;;;;9.43;91.41;95971.19;4375526;32;20257;-57
2023/01/06 03:21:24;;;;;;;0.33;0.33;;;;;;;9.32;91.99;95967.78;4373154;32;20220;-56
2023/01/06 03:23:49;;;;;;;0.07;0.07;;;;;;;9.55;91.00;95963.75;4362800;32;20238;-56
2023/01/06 03:26:17;;;;;;;0.20;0.20;;;;;;;9.24;91.88;95955.88;4379326;32;20197;-56
2023/01/06 03:28:42;;;;;;;0.00;0.00;;;;;;;9.18;92.54;95969.37;4371992;32;20196;-57
2023/01/06 03:31:20;;;;;;;0.47;0.47;;;;;;;9.19;92.36;95963.03;4383254;32;20207;-55
2023/01/06 03:34:01;;;;;;;0.00;0.00;;;;;;;9.21;92.50;95955.63;4378398;32;20192;-57
2023/01/06 03:36:49;;;;;;;0.20;0.20;;;;;;;9.25;91.98;95954.03;4358995;32;20203;-56
2023/01/06 03:39:23;;;;;;;0.20;0.20;;;;;;;9.29;91.98;95960.38;4368282;32;20207;-57
2023/01/06 03:45:12;;;;;;;0.00;0.00;;;;;;;9.12;91.66;95957.25;4360805;32;20218;-56
2023/01/06 03:47:44;;;;;;;0.20;0.20;;;;;;;9.08;91.80;95962.28;4373285;32;20204;-57
2023/01/06 03:50:22;;;;;;;0.30;0.30;;;;;;;9.27;90.98;95967.78;4377895;32;20249;-56
2023/01/06 03:52:57;;;;;;;0.93;0.60;;;;;;;9.14;91.65;95963.06;4377503;32;20193;-56
2023/01/06 03:55:26;;;;;;;0.00;0.00;;;;;;;9.15;91.59;95967.28;4360823;32;20227;-55
2023/01/06 03:57:55;;;;;;;0.37;0.37;;;;;;;9.16;91.54;95967.00;4344783;32;20343;-57
2023/01/06 04:00:30;;;;;;;0.00;0.00;;;;;;;9.16;91.16;95963.56;4388391;32;20172;-57
2023/01/06 04:02:56;;;;;;;0.00;0.00;;;;;;;8.90;92.43;95974.22;4353353;32;20208;-55
2023/01/06 04:05:25;;;;;;;0.27;0.20;;;;;;;9.08;91.98;95966.78;4345287;32;20458;-58
2023/01/06 04:07:50;;;;;;;0.13;0.13;;;;;;;8.91;91.96;95965.22;4376334;32;20224;-57
2023/01/06 04:10:17;;;;;;;0.20;0.20;;;;;;;8.91;92.33;95969.72;4385861;32;20236;-56
2023/01/06 04:12:44;;;;;;;0.20;0.20;;;;;;;9.11;91.57;95967.03;4371295;32;20197;-57
2023/01/06 04:15:13;;;;;;;0.20;0.20;;;;;;;9.09;91.02;95965.72;4363944;32;20255;-58
2023/01/06 04:17:39;;;;;;;0.30;0.30;;;;;;;8.85;91.90;95957.53;4366188;32;20250;-57
2023/01/06 04:20:07;;;;;;;0.57;0.40;;;;;;;8.84;92.18;95969.97;4376001;32;20260;-56
2023/01/06 04:22:32;;;;;;;0.30;0.30;;;;;;;8.80;92.62;95979.50;4390512;32;20184;-57
2023/01/06 04:24:58;;;;;;;0.10;0.10;;;;;;;8.86;92.13;95969.72;4372815;32;20351;-57
2023/01/06 04:27:23;;;;;;;0.07;0.07;;;;;;;8.88;91.52;95971.03;4367278;32;20216;-58
2023/01/06 04:29:48;;;;;;;0.20;0.20;;;;;;;8.81;91.55;95975.78;4379916;32;20193;-56
2023/01/06 04:32:15;;;;;;;0.00;0.00;;;;;;;8.70;92.12;95979.50;4373495;32;20180;-57
2023/01/06 04:34:40;;;;;;;0.30;0.30;;;;;;;8.73;91.62;95972.91;4374177;32;20417;-57
2023/01/06 04:37:05;;;;;;;0.10;0.10;;;;;;;8.61;91.88;95975.78;4365539;32;20232;-57
2023/01/06 04:39:33;;;;;;;0.00;0.00;;;;;;;8.45;92.82;95969.72;4358415;32;20191;-56
2023/01/06 04:41:59;;;;;;;0.10;0.10;;;;;;;8.46;92.91;95979.22;4366496;32;20192;-57
2023/01/06 04:44:24;;;;;;;0.10;0.10;;;;;;;8.46;92.58;95973.94;4385917;32;20180;-57
2023/01/06 04:46:50;;;;;;;0.10;0.10;;;;;;;8.52;92.22;95977.37;4380470;32;20208;-56
2023/01/06 04:49:18;;;;;;;0.10;0.10;;;;;;;8.50;91.91;95980.28;4393508;32;20188;-57
2023/01/06 04:51:44;;;;;;;0.10;0.10;;;;;;;8.49;92.38;95977.91;4369081;32;20235;-57
2023/01/06 04:54:09;;;;;;;0.40;0.30;;;;;;;8.75;90.71;95974.19;4372188;32;20292;-57
2023/01/06 04:56:34;;;;;;;0.03;0.03;;;;;;;8.74;90.35;95969.97;4391973;32;20196;-57
2023/01/06 04:59:01;;;;;;;0.20;0.20;;;;;;;8.70;90.26;95974.22;4391542;32;20211;-57
2023/01/06 05:01:26;;;;;;;0.17;0.17;;;;;;;8.58;90.73;95971.81;4351460;32;20252;-57
2023/01/06 05:03:52;;;;;;;0.03;0.03;;;;;;;8.54;90.81;95967.31;4357656;32;20410;-57
2023/01/06 05:06:18;;;;;;;0.30;0.23;;;;;;;8.56;90.91;95975.78;4375041;32;20283;-56
2023/01/06 05:08:44;;;;;;;0.17;0.17;;;;;;;8.46;90.89;95967.84;4352445;32;20319;-57
2023/01/06 05:11:16;;;;;;;0.10;0.10;;;;;;;8.30;91.09;95968.87;4375968;32;20303;-57
2023/01/06 05:13:41;;;;;;;0.17;0.17;;;;;;;8.43;91.29;95966.53;4365308;32;20288;-56
2023/01/06 05:16:09;;;;;;;1.70;0.50;;;;;;;8.43;91.26;95968.37;4355870;32;20288;-57
2023/01/06 05:18:35;;;;;;;0.43;0.43;;;;;;;8.57;90.41;95964.94;4386257;32;20193;-56
2023/01/06 05:21:00;;;;;;;0.10;0.10;;;;;;;8.40;91.01;95968.91;4364713;32;20405;-56
2023/01/06 05:23:25;;;;;;;0.00;0.00;;;;;;;8.30;90.83;95977.59;4387766;32;20196;-56
2023/01/06 05:25:51;;;;;;;0.00;0.00;;;;;;;8.40;90.47;95971.53;4348544;32;20281;-54
2023/01/06 05:28:17;;;;;;;0.07;0.07;;;;;;;8.46;89.79;95970.50;4371499;32;20232;-57
2023/01/06 05:30:43;;;;;;;0.10;0.10;;;;;;;8.20;91.00;95981.00;4360307;32;20204;-56
2023/01/06 05:33:08;;;;;;;0.43;0.37;;;;;;;8.17;91.24;95983.38;4375319;32;20211;-56
2023/01/06 05:35:33;;;;;;;0.17;0.17;;;;;;;8.18;91.35;95977.03;4381288;32;20210;-57
2023/01/06 05:37:59;;;;;;;0.20;0.20;;;;;;;8.20;90.96;95986.28;4393148;32;20204;-56
2023/01/06 05:40:24;;;;;;;0.03;0.03;;;;;;;8.20;90.69;95967.78;4379057;32;20295;-57
2023/01/06 05:42:56;;;;;;;1.03;0.40;;;;;;;8.24;90.67;95970.72;4377213;32;20184;-57
2023/01/06 05:45:25;;;;;;;0.17;0.17;;;;;;;8.13;90.81;95975.16;4338879;32;23999;-57
2023/01/06 05:47:51;;;;;;;0.10;0.10;;;;;;;8.04;91.05;95973.31;4355592;32;20300;-58
2023/01/06 05:50:17;;;;;;;0.10;0.10;;;;;;;8.15;90.57;95978.34;4362457;32;20331;-57
2023/01/06 05:52:43;;;;;;;0.00;0.00;;;;;;;8.19;90.21;95974.13;4355376;32;20189;-57
2023/01/06 05:55:09;;;;;;;1.07;0.50;;;;;;;8.03;90.34;95971.72;4327858;32;20295;-57
2023/01/06 05:57:35;;;;;;;0.00;0.00;;;;;;;7.87;91.23;95974.31;4383039;32;20211;-58
2023/01/06 06:00:05;;;;;;;0.27;0.27;;;;;;;8.04;90.57;95974.09;4365122;32;20355;-57
2023/01/06 06:02:30;;;;;;;0.30;0.30;;;;;;;8.13;90.24;95972.53;4337643;32;20300;-56
2023/01/06 06:04:56;;;;;;;0.00;0.00;;;;;;;8.05;89.56;95970.41;4345568;32;20318;-57
2023/01/06 06:07:21;;;;;;;0.00;0.00;;;;;;;7.84;90.63;95976.69;4357764;32;20275;-56
2023/01/06 06:09:48;;;;;;;0.00;0.00;;;;;;;7.99;90.19;95974.09;4391035;32;20189;-55
2023/01/06 06:12:13;;;;;;;0.40;0.40;;;;;;;8.01;90.15;95977.25;4386856;32;20187;-57
2023/01/06 06:14:39;;;;;;;0.00;0.00;;;;;;;7.94;89.69;95964.28;4359232;32;20269;-57
2023/01/06 06:17:04;;;;;;;0.03;0.03;;;;;;;7.99;89.61;95971.44;4366152;32;20180;-56
2023/01/06 06:19:29;;;;;;;0.00;0.00;;;;;;;7.98;89.45;95971.69;4385679;32;20181;-57
2023/01/06 06:21:55;;;;;;;0.03;0.03;;;;;;;7.98;89.90;95982.25;4365545;32;20232;-57
2023/01/06 06:24:20;;;;;;;0.10;0.10;;;;;;;7.88;89.83;95981.19;4382542;32;20256;-55
2023/01/06 06:26:45;;;;;;;0.30;0.30;;;;;;;7.74;90.08;95988.00;4377245;32;20223;-57
2023/01/06 06:29:11;;;;;;;0.20;0.20;;;;;;;7.84;90.01;95993.34;4337845;32;20188;-56
2023/01/06 06:31:36;;;;;;;0.07;0.07;;;;;;;7.81;89.53;95979.84;4357271;32;20270;-56
2023/01/06 06:34:02;;;;;;;0.17;0.17;;;;;;;7.77;89.14;95987.47;4374436;32;20218;-57
2023/01/06 06:36:29;;;;;;;0.10;0.10;;;;;;;7.93;88.75;95983.84;4381397;32;20184;-55
2023/01/06 06:38:54;;;;;;;0.27;0.27;;;;;;;7.82;88.92;95979.59;4351765;32;20331;-56
2023/01/06 06:41:24;;;;;;;0.07;0.07;;;;;;;7.65;89.52;95978.19;4361181;32;20288;-55
2023/01/06 06:43:50;;;;;;;0.10;0.10;;;;;;;7.57;89.52;95977.63;4362568;32;20203;-57
2023/01/06 06:46:17;;;;;;;0.17;0.17;;;;;;;7.56;89.87;95976.03;4371595;32;20347;-56
2023/01/06 06:48:42;;;;;;;0.10;0.10;;;;;;;7.68;89.37;95975.06;4393789;32;20321;-57
2023/01/06 06:51:13;;;;;;;0.20;0.20;;;;;;;7.58;89.40;95973.94;4365631;32;20285;-56
2023/01/06 06:53:39;;;;;;;0.30;0.30;;;;;;;7.57;89.18;95964.44;4361562;32;20260;-54
2023/01/06 06:56:06;;;;;;;0.10;0.10;;;;;;;7.41;90.04;95962.78;4360335;32;20289;-56
2023/01/06 06:58:32;;;;;;;0.00;0.00;;;;;;;7.58;89.69;95966.03;4346352;32;20327;-64
2023/01/06 07:00:58;;;;;;;0.00;0.00;;;;;;;7.48;89.92;95973.88;4346740;32;20300;-57
2023/01/06 07:03:26;;;;;;;0.00;0.00;;;;;;;7.45;90.23;95968.34;4366665;32;20395;-57
2023/01/06 07:05:52;;;;;;;0.20;0.20;;;;;;;7.61;89.38;95966.56;4385838;32;20209;-57
2023/01/06 07:08:17;;;;;;;0.00;0.00;;;;;;;7.64;89.25;95966.06;4374005;32;20310;-55
2023/01/06 07:10:43;;;;;;;0.10;0.10;;;;;;;7.74;89.24;95966.06;4355286;32;20292;-57
2023/01/06 07:13:09;;;;;;;0.20;0.20;;;;;;;7.73;88.59;95964.47;4346998;32;20215;-57
2023/01/06 07:15:34;;;;;;;0.60;0.23;;;;;;;7.60;89.01;95960.50;4369330;32;20203;-58
2023/01/06 07:18:03;;;;;;;0.20;0.20;;;;;;;7.48;89.53;95963.31;4364647;32;20193;-57
2023/01/06 07:20:30;;;;;;;0.13;0.10;;;;;;;7.47;89.67;95966.25;4330555;32;20212;-57
2023/01/06 07:22:56;;;;;;;0.10;0.10;;;;;;;7.41;89.82;95962.78;4370579;32;20356;-57
2023/01/06 07:25:21;;;;;;;1.43;0.70;;;;;;;7.38;89.73;95965.12;4376303;32;20371;-57
2023/01/06 07:27:52;;;;;;;0.00;0.00;;;;;;;7.44;89.56;95975.47;4378967;32;20236;-56
2023/01/06 07:30:17;;;;;;;0.07;0.07;;;;;;;7.49;89.36;95969.41;4381389;32;20259;-56
2023/01/06 07:32:43;;;;;;;0.20;0.20;;;;;;;7.65;88.88;95972.91;4353395;32;20302;-56
2023/01/06 07:35:09;;;;;;;0.00;0.00;;;;;;;7.75;88.15;95970.31;4362914;32;20200;-53
2023/01/06 07:37:34;;;;;;;0.10;0.10;;;;;;;7.61;88.22;95969.19;4368963;32;20243;-55
2023/01/06 07:39:59;;;;;;;0.43;0.27;;;;;;;7.65;88.35;95963.16;4345457;32;20218;-57
2023/01/06 07:42:24;;;;;;;0.50;0.50;;;;;;;7.70;87.72;95970.28;4370752;32;20238;-55
2023/01/06 07:44:50;;;;;;;0.20;0.20;;;;;;;7.67;88.21;95971.63;4386021;32;20199;-56
2023/01/06 07:47:15;;;;;;;0.77;0.60;;;;;;;7.67;87.71;95965.53;4365562;32;20236;-57
2023/01/06 07:49:40;;;;;;;0.10;0.10;;;;;;;7.98;86.66;95969.06;4374317;32;20241;-55
2023/01/06 07:52:06;;;;;;;0.30;0.30;;;;;;;7.91;86.79;95961.37;4370525;32;20220;-57
2023/01/06 07:54:31;;;;;;;0.10;0.10;;;;;;;7.84;86.60;95953.72;4391162;32;20188;-55
2023/01/06 07:56:59;;;;;;;0.20;0.20;;;;;;;7.87;86.28;95950.56;4381211;32;20234;-57
2023/01/06 07:59:24;;;;;;;0.10;0.10;;;;;;;7.88;86.14;95949.50;4378555;32;20181;-57
2023/01/06 08:01:50;;;;;;;0.17;0.17;;;;;;;7.96;85.86;95948.19;4377109;32;20306;-55
2023/01/06 08:04:15;;;;;;;0.00;0.00;;;;;;;8.09;85.24;95946.91;4368285;32;20177;-57
2023/01/06 08:06:40;;;;;;;0.00;0.00;;;;;;;8.02;85.28;95941.88;4377365;32;20252;-57
2023/01/06 08:09:07;;;;;;;0.00;0.00;;;;;;;7.90;85.76;95947.38;4376132;32;20192;-56
2023/01/06 08:11:32;;;;;;;0.20;0.20;;;;;;;7.98;85.58;95947.91;4376409;32;20232;-59
2023/01/06 08:13:57;;;;;;;0.53;0.47;;;;;;;7.93;85.73;95952.13;4386124;32;20276;-57
2023/01/06 08:16:22;;;;;;;0.13;0.03;;;;;;;8.04;85.18;95945.03;4381159;32;20246;-56
2023/01/06 08:18:48;;;;;;;0.00;0.00;;;;;;;8.02;84.88;95952.44;4379836;32;20184;-56
2023/01/06 08:21:13;;;;;;;0.07;0.07;;;;;;;7.79;85.93;95953.69;4390545;32;20268;-57
2023/01/06 08:23:39;;;;;;;0.03;0.03;;;;;;;8.05;85.31;95959.84;4383485;32;20192;-57
2023/01/06 08:26:12;;;;;;;0.13;0.13;;;;;;;7.93;85.17;95956.63;4386914;32;20189;-57
2023/01/06 08:28:41;;;;;;;0.33;0.30;;;;;;;8.09;84.80;95962.75;4367109;32;20292;-57
2023/01/06 08:31:12;;;;;;;0.10;0.10;;;;;;;8.10;84.79;95951.13;4362958;32;20285;-56
2023/01/06 08:33:37;;;;;;;0.23;0.23;;;;;;;8.16;84.51;95950.88;4381603;32;20324;-56
2023/01/06 08:36:05;;;;;;;0.30;0.30;;;;;;;8.28;83.70;95956.72;4367099;32;20280;-57
2023/01/06 08:38:32;;;;;;;0.10;0.10;;;;;;;9.02;92.78;95942.16;4381412;32;20216;-57
2023/01/06 08:40:58;;;;;;;0.20;0.20;;;;;;;9.44;90.48;95941.78;4363071;32;20288;-54
2023/01/06 08:43:24;;;;;;;2.83;0.80;;;;;;;10.03;89.48;95930.37;4379058;32;20300;-57
2023/01/06 08:45:50;;;;;;;0.27;0.23;;;;;;;10.39;85.56;95938.94;4370818;32;20184;-57
2023/01/06 08:48:16;;;;;;;0.33;0.33;;;;;;;10.80;84.90;95931.44;4359719;32;20219;-57
2023/01/06 08:50:42;;;;;;;0.00;0.00;;;;;;;11.03;81.74;95933.31;4379728;32;20207;-55
2023/01/06 08:53:09;;;;;;;0.10;0.10;;;;;;;11.17;81.22;95938.00;4384452;32;20196;-57
2023/01/06 08:55:40;;;;;;;0.30;0.30;;;;;;;11.45;78.04;95942.44;4388063;32;20188;-56
2023/01/06 08:58:11;;;;;;;0.30;0.30;;;;;;;11.67;79.32;95945.38;4367994;32;20200;-57
2023/01/06 09:00:40;;;;;;;0.23;0.23;;;;;;;11.76;77.65;95950.91;4371644;32;20230;-58
2023/01/06 09:03:07;;;;;;;0.47;0.47;;;;;;;11.86;77.12;95947.31;4364194;32;20188;-58
2023/01/06 09:05:33;;;;;;;0.13;0.13;;;;;;;10.73;72.94;95949.53;4371117;32;20256;-58
2023/01/06 09:07:58;;;;;;;0.10;0.10;;;;;;;10.17;74.16;95965.84;4375004;32;20234;-56
2023/01/06 09:10:24;;;;;;;0.33;0.20;;;;;;;9.83;75.20;95965.72;4389717;32;20196;-58
2023/01/06 09:12:50;;;;;;;0.10;0.10;;;;;;;10.05;74.96;95965.34;4365563;32;20185;-57
2023/01/06 09:15:15;;;;;;;0.13;0.13;;;;;;;9.85;75.01;95965.47;4368588;32;20196;-58
2023/01/06 09:17:41;;;;;;;0.20;0.20;;;;;;;9.67;75.89;95971.38;4377092;32;20203;-57
2023/01/06 09:20:07;;;;;;;0.10;0.10;;;;;;;9.80;76.09;95966.28;4379723;32;20219;-58
2023/01/06 09:22:32;;;;;;;0.30;0.30;;;;;;;9.74;75.59;95966.59;4378559;32;20314;-57
2023/01/06 09:24:58;;;;;;;0.20;0.20;;;;;;;9.75;76.72;95963.66;4364183;32;20204;-57
2023/01/06 09:27:23;;;;;;;0.30;0.30;;;;;;;9.97;76.00;95971.25;4362723;32;20189;-58
2023/01/06 09:29:49;;;;;;;0.00;0.00;;;;;;;9.88;76.39;95978.97;4364314;32;20219;-58
2023/01/06 09:32:14;;;;;;;0.10;0.10;;;;;;;9.85;77.25;95979.50;4374239;32;20193;-57
2023/01/06 09:34:39;;;;;;;0.10;0.10;;;;;;;9.79;77.26;95971.84;4353301;32;20208;-57
2023/01/06 09:37:07;;;;;;;0.40;0.40;;;;;;;9.88;77.92;95978.16;4370095;32;20231;-57
2023/01/06 09:39:33;;;;;;;0.00;0.00;;;;;;;9.99;76.65;95991.09;4380639;32;20198;-57
2023/01/06 09:42:26;;;;;;;0.00;0.00;;;;;;;9.93;77.13;95992.19;4372749;32;20196;-57
2023/01/06 09:44:59;;;;;;;0.10;0.10;;;;;;;10.00;76.40;95999.84;4381434;32;20254;-58
2023/01/06 09:47:30;;;;;;;0.03;0.03;;;;;;;10.03;76.19;95995.84;4369410;32;20233;-57
2023/01/06 09:50:06;;;;;;;0.30;0.30;;;;;;;10.02;77.89;95999.56;4370488;32;20193;-57
2023/01/06 09:52:50;;;;;;;0.03;0.03;;;;;;;10.14;76.76;95997.41;4371106;32;20200;-57
2023/01/06 09:55:34;;;;;;;0.10;0.10;;;;;;;10.14;76.12;96006.16;4370046;32;20300;-58
2023/01/06 09:58:24;;;;;;;0.20;0.20;;;;;;;10.39;75.57;95997.28;4368226;32;20229;-58
2023/01/06 10:00:54;;;;;;;0.30;0.30;;;;;;;10.44;75.67;96012.34;4352421;32;20197;-58
2023/01/06 10:03:25;;;;;;;0.00;0.00;;;;;;;10.48;74.47;96003.59;4380126;32;20203;-58
2023/01/06 10:05:59;;;;;;;0.00;0.00;;;;;;;10.41;75.05;95997.78;4391879;32;20209;-58
2023/01/06 10:08:46;;;;;;;0.20;0.20;;;;;;;10.58;73.91;96000.09;4365004;32;20304;-58
2023/01/06 10:11:22;;;;;;;0.00;0.00;;;;;;;10.65;73.81;95997.88;4357683;32;20192;-59
2023/01/06 10:14:37;;;;;;;0.10;0.10;;;;;;;10.80;73.30;96000.44;4349505;32;20236;-58
2023/01/06 10:17:26;;;;;;;0.33;0.30;;;;;;;10.52;73.43;95994.00;4307496;32;20209;-58
2023/01/06 10:20:06;;;;;;;0.00;0.00;;;;;;;10.66;73.29;95984.34;4332882;32;20213;-57
2023/01/06 10:22:44;;;;;;;0.00;0.00;;;;;;;10.80;73.11;95994.34;4354969;32;20214;-65
2023/01/06 10:25:40;;;;;;;0.00;0.00;;;;;;;10.86;72.86;95991.34;4352923;32;20197;-58
2023/01/06 10:28:34;;;;;;;0.50;0.30;;;;;;;10.81;73.04;95996.69;4341571;32;20200;-58
2023/01/06 10:31:04;;;;;;;0.10;0.10;;;;;;;10.79;73.61;95987.47;4346418;32;20332;-57
2023/01/06 10:33:34;;;;;;;0.07;0.07;;;;;;;11.09;73.06;95975.78;4348647;32;20253;-57
2023/01/06 10:36:00;;;;;;;0.00;0.00;;;;;;;10.97;73.91;95974.28;4353609;32;20197;-58
2023/01/06 10:38:40;;;;;;;0.20;0.20;;;;;;;11.07;73.97;95977.91;4346658;32;20243;-58
2023/01/06 10:41:17;;;;;;;0.10;0.10;;;;;;;10.97;74.39;95968.97;4337880;32;20261;-58
2023/01/06 10:43:42;;;;;;;0.20;0.20;;;;;;;11.04;74.29;95965.97;4350960;32;20200;-58
2023/01/06 10:46:08;;;;;;;0.10;0.10;;;;;;;11.04;74.68;95968.63;4337080;32;20270;-58
2023/01/06 10:48:34;;;;;;;1.20;1.10;;;;;;;11.11;74.71;95968.31;4337046;32;20189;-49
2023/01/06 10:51:37;;;;;;;1.00;1.00;;;;;;;12.03;91.81;95956.41;4364636;32;20226;-48
2023/01/06 10:54:10;;;;;;;1.00;1.00;;;;;;;14.35;92.35;95957.88;4360514;32;20195;-49
2023/01/06 10:56:38;;;;;;;0.30;0.30;;;;;;;15.43;76.53;95955.00;4351090;32;20291;-51
2023/01/06 10:59:10;;;;;;;0.60;0.60;;;;;;;16.01;71.47;95966.56;4365182;32;20192;-51
2023/01/06 11:01:48;;;;;;;0.30;0.30;;;;;;;16.15;66.48;95969.91;4378838;32;20215;-50
2023/01/06 11:04:20;;;;;;;0.20;0.20;;;;;;;16.49;63.55;95972.62;4380751;32;20203;-50
2023/01/06 11:06:56;;;;;;;0.23;0.23;;;;;;;16.47;63.05;95977.50;4368928;32;20225;-48
2023/01/06 11:09:50;;;;;;;0.93;0.40;;;;;;;16.61;60.76;95976.59;4360176;32;20293;-51
2023/01/06 11:12:19;;;;;;;0.20;0.20;;;;;;;16.72;61.24;95967.94;4364036;32;20205;-49
2023/01/06 11:15:06;;;;;;;0.10;0.10;;;;;;;16.80;60.87;95963.69;4375824;32;20249;-47
2023/01/06 11:17:31;;;;;;;0.60;0.40;;;;;;;16.19;56.85;95972.75;4367768;32;20279;-51
2023/01/06 11:20:12;;;;;;;0.03;0.03;;;;;;;16.65;60.80;95966.81;4367982;32;20192;-47
2023/01/06 11:22:40;;;;;;;0.20;0.20;;;;;;;16.75;60.76;95966.50;4376075;32;20271;-49
2023/01/06 11:25:21;;;;;;;0.20;0.20;;;;;;;16.58;60.66;95972.62;4383565;32;20202;-46
2023/01/06 11:28:22;;;;;;;0.00;0.00;;;;;;;16.73;59.94;95961.47;4377896;32;20196;-50
2023/01/06 11:30:52;;;;;;;0.47;0.40;;;;;;;16.83;59.50;95968.41;4298943;33;20241;-54
2023/01/06 11:33:23;;;;;;;0.33;0.33;;;;;;;16.84;58.81;95969.97;4350077;32;20264;-52
2023/01/06 11:35:50;;;;;;;0.10;0.10;;;;;;;16.76;58.30;95966.19;4365289;32;20185;-52
2023/01/06 11:38:18;;;;;;;0.10;0.10;;;;;;;16.83;57.56;95965.72;4372417;32;20310;-52
2023/01/06 11:40:50;;;;;;;0.27;0.27;;;;;;;16.65;58.03;95961.47;4370713;32;20199;-60
2023/01/06 11:43:24;;;;;;;0.30;0.30;;;;;;;16.13;57.46;95958.72;4375921;32;20212;-60
2023/01/06 11:45:56;;;;;;;0.13;0.13;;;;;;;15.03;60.50;95964.06;4368698;32;20204;-61
2023/01/06 11:48:30;;;;;;;0.20;0.20;;;;;;;13.83;64.04;95956.63;4385904;32;20262;-59
2023/01/06 11:50:58;;;;;;;0.30;0.30;;;;;;;13.06;67.87;95957.22;4380658;32;20192;-60
2023/01/06 11:53:25;;;;;;;0.47;0.43;;;;;;;12.93;69.02;95951.84;4368572;32;20188;-60
2023/01/06 11:56:06;;;;;;;0.40;0.33;;;;;;;12.52;71.14;95957.03;4381541;32;20230;-60